| time (UTC) | temp F | wind direction | speed knots | gust knots | rain 1hr in | rain 24hr in | rain mn in | humidity % | barometer mb |
| 20260906124604 | 74 | 0 | 0.0 | 0.0 | 0.00 | 0.62 | 0.00 | 94 | 1012.5 |
| 20260906123108 | 74 | 0 | 0.0 | 0.0 | 0.00 | 0.62 | 0.00 | 94 | 1012.4 |
| 20260906121606 | 72 | 0 | 0.0 | 0.0 | 0.00 | 0.62 | 0.00 | 98 | 1012.3 |
| 20260906120112 | 71 | 0 | 0.0 | 0.0 | 0.00 | 0.62 | 0.00 | 99 | 1012.2 |
| 20260906114609 | 71 | 0 | 0.0 | 0.0 | 0.00 | 0.62 | 0.00 | 99 | 1011.9 |
| 20260906113111 | 70 | 0 | 0.0 | 0.0 | 0.00 | 0.62 | 0.00 | 99 | 1011.9 |
| 20260906111605 | 70 | 0 | 0.0 | 0.0 | 0.00 | 0.62 | 0.00 | 99 | 1011.5 |
| 20260906110107 | 70 | 0 | 0.0 | 0.0 | 0.00 | 0.62 | 0.00 | 99 | 1011.4 |
| 20260906104608 | 69 | 0 | 0.0 | 0.0 | 0.00 | 0.62 | 0.00 | 99 | 1011.3 |
| 20260906103105 | 70 | 0 | 0.0 | 0.0 | 0.00 | 0.62 | 0.00 | 99 | 1011.3 |
| 20260906101607 | 70 | 0 | 0.0 | 0.0 | 0.00 | 0.62 | 0.00 | 99 | 1011.3 |
| 20260906100119 | 70 | 0 | 0.0 | 0.0 | 0.00 | 0.62 | 0.00 | 99 | 1011.0 |
| 20260906094616 | 70 | 0 | 0.0 | 0.0 | 0.00 | 0.62 | 0.00 | 99 | 1010.8 |
| 20260906093133 | 70 | 0 | 0.0 | 0.0 | 0.00 | 0.62 | 0.00 | 99 | 1010.4 |
| 20260906091613 | 71 | 0 | 0.0 | 0.0 | 0.00 | 0.62 | 0.00 | 99 | 1010.3 |
| 20260906090107 | 70 | 0 | 0.0 | 0.0 | 0.00 | 0.62 | 0.00 | 99 | 1010.4 |
| 20260906084605 | 70 | 0 | 0.0 | 0.0 | 0.00 | 0.62 | 0.00 | 99 | 1010.3 |
| 20260906083105 | 71 | 0 | 0.0 | 0.0 | 0.00 | 0.62 | 0.00 | 99 | 1010.4 |
| 20260906081609 | 70 | 0 | 0.0 | 0.0 | 0.00 | 0.62 | 0.00 | 99 | 1010.6 |
| 20260906080110 | 70 | 0 | 0.0 | 0.0 | 0.00 | 0.62 | 0.00 | 99 | 1010.6 |
| 20260906074605 | 71 | 0 | 0.0 | 0.0 | 0.00 | 0.62 | 0.00 | 99 | 1010.5 |
| 20260906073109 | 71 | 0 | 0.0 | 0.0 | 0.00 | 0.62 | 0.00 | 99 | 1010.6 |
| 20260906071607 | 71 | 0 | 0.0 | 0.0 | 0.00 | 0.62 | 0.00 | 99 | 1011.0 |
| 20260906070107 | 71 | 0 | 0.0 | 0.0 | 0.00 | 0.62 | 0.00 | 99 | 1011.2 |
| 20260906064606 | 70 | 0 | 0.0 | 0.0 | 0.00 | 0.62 | 0.00 | 99 | 1011.1 |
| 20260906063106 | 71 | 0 | 0.0 | 0.0 | 0.00 | 0.62 | 0.00 | 99 | 1011.2 |
| 20260906061606 | 71 | 0 | 0.0 | 0.0 | 0.00 | 0.62 | 0.00 | 99 | 1011.1 |
| 20260906060108 | 71 | 0 | 0.0 | 0.0 | 0.00 | 0.62 | 0.00 | 99 | 1011.3 |
| 20260906054611 | 71 | 0 | 0.0 | 0.0 | 0.00 | 0.62 | 0.00 | 99 | 1011.2 |
| 20260906053105 | 71 | 0 | 0.0 | 0.0 | 0.00 | 0.62 | 0.00 | 99 | 1011.1 |
| 20260906051609 | 71 | 0 | 0.0 | 0.0 | 0.00 | 0.62 | 0.00 | 99 | 1011.2 |
| 20260906050111 | 71 | 0 | 0.0 | 0.0 | 0.00 | 0.62 | 0.00 | 99 | 1011.1 |
| 20260906044608 | 71 | 0 | 0.0 | 0.0 | 0.00 | 0.62 | 0.00 | 99 | 1011.6 |
| 20260906043105 | 71 | 0 | 0.0 | 0.0 | 0.00 | 0.62 | 0.00 | 99 | 1012.0 |
| 20260906041608 | 71 | 0 | 0.0 | 0.0 | 0.00 | 0.62 | 0.00 | 99 | 1012.0 |
| 20260906040110 | 72 | 0 | 0.0 | 0.0 | 0.00 | 0.62 | 0.00 | 99 | 1011.9 |
| 20260906034608 | 71 | 0 | 0.0 | 0.0 | 0.00 | 0.62 | 0.62 | 99 | 1012.0 |
| 20260906033107 | 72 | 0 | 0.0 | 0.0 | 0.00 | 0.62 | 0.62 | 99 | 1012.1 |
| 20260906031603 | 71 | 0 | 0.0 | 0.0 | 0.00 | 0.62 | 0.62 | 99 | 1012.2 |
| 20260906030108 | 72 | 0 | 0.0 | 0.0 | 0.00 | 0.62 | 0.62 | 99 | 1012.3 |
| 20260906024609 | 72 | 0 | 0.0 | 0.0 | 0.00 | 0.62 | 0.62 | 99 | 1012.0 |
| 20260906023104 | 72 | 0 | 0.0 | 0.0 | 0.00 | 0.62 | 0.62 | 99 | 1012.0 |
| 20260906021606 | 72 | 0 | 0.0 | 0.0 | 0.00 | 0.62 | 0.62 | 99 | 1011.8 |
| 20260906020112 | 72 | 0 | 0.0 | 0.0 | 0.00 | 0.62 | 0.62 | 99 | 1011.8 |
| 20260906014649 | 72 | 0 | 0.0 | 0.0 | 0.02 | 0.62 | 0.62 | 99 | 1011.6 |
| 20260906013108 | 72 | 0 | 0.0 | 0.0 | 0.03 | 0.62 | 0.62 | 99 | 1011.6 |
| 20260906011606 | 72 | 0 | 0.0 | 1.7 | 0.04 | 0.62 | 0.62 | 99 | 1011.6 |
| 20260906010105 | 71 | 0 | 0.0 | 0.0 | 0.04 | 0.62 | 0.62 | 99 | 1011.3 |
| 20260906004614 | 71 | 0 | 0.0 | 0.0 | 0.02 | 0.60 | 0.60 | 99 | 1011.2 |
| 20260906003115 | 71 | 0 | 0.0 | 0.0 | 0.01 | 0.58 | 0.58 | 99 | 1011.3 |
| 20260906001605 | 71 | 0 | 0.0 | 0.0 | 0.00 | 0.58 | 0.58 | 99 | 1011.5 |
| 20260906000108 | 71 | 0 | 0.0 | 0.0 | 0.00 | 0.58 | 0.58 | 98 | 1011.5 |
| 20260905234612 | 71 | 196 | 0.0 | 0.9 | 0.29 | 0.58 | 0.58 | 98 | 1011.4 |
| 20260905233103 | 70 | 0 | 0.0 | 0.0 | 0.56 | 0.58 | 0.58 | 98 | 1011.0 |
| 20260905231608 | 70 | 0 | 0.0 | 0.0 | 0.58 | 0.58 | 0.58 | 98 | 1011.0 |
| 20260905230111 | 70 | 0 | 0.0 | 0.0 | 0.58 | 0.58 | 0.58 | 98 | 1011.4 |
| 20260905224614 | 70 | 0 | 0.9 | 16.5 | 0.28 | 0.28 | 0.28 | 96 | 1013.1 |
| 20260905223105 | 76 | 20 | 9.6 | 27.8 | 0.02 | 0.02 | 0.02 | 80 | 1011.2 |
| 20260905221617 | 92 | 0 | 0.0 | 0.0 | 0.00 | 0.00 | 0.00 | 67 | 1010.3 |
| 20260905220111 | 93 | 0 | 0.0 | 0.0 | 0.00 | 0.00 | 0.00 | 65 | 1010.3 |
| 20260905214610 | 94 | 0 | 0.0 | 2.6 | 0.00 | 0.00 | 0.00 | 64 | 1008.7 |
| 20260905213106 | 95 | 0 | 0.0 | 0.0 | 0.00 | 0.00 | 0.00 | 61 | 1009.6 |
| 20260905211606 | 95 | 0 | 0.0 | 1.7 | 0.00 | 0.00 | 0.00 | 61 | 1010.0 |
| 20260905210107 | 96 | 0 | 0.0 | 2.6 | 0.00 | 0.00 | 0.00 | 61 | 1009.7 |
| 20260905204610 | 96 | 0 | 0.0 | 0.9 | 0.00 | 0.00 | 0.00 | 61 | 1009.6 |
| 20260905203108 | 96 | 0 | 0.0 | 1.7 | 0.00 | 0.00 | 0.00 | 60 | 1009.5 |
| 20260905201627 | 96 | 232 | 0.0 | 3.5 | 0.00 | 0.00 | 0.00 | 61 | 1009.7 |
| 20260905200108 | 95 | 0 | 0.0 | 5.2 | 0.00 | 0.00 | 0.00 | 62 | 1009.9 |
| 20260905194605 | 95 | 276 | 0.0 | 5.2 | 0.00 | 0.00 | 0.00 | 63 | 1009.9 |
| 20260905193114 | 96 | 0 | 0.0 | 0.9 | 0.00 | 0.00 | 0.00 | 62 | 1010.1 |
| 20260905191605 | 95 | 0 | 0.9 | 6.1 | 0.00 | 0.00 | 0.00 | 64 | 1010.2 |
| 20260905190108 | 95 | 0 | 0.0 | 0.9 | 0.00 | 0.00 | 0.00 | 62 | 1010.7 |
| 20260905184612 | 95 | 0 | 0.0 | 6.1 | 0.00 | 0.00 | 0.00 | 64 | 1011.1 |
| 20260905183106 | 94 | 0 | 0.0 | 2.6 | 0.00 | 0.00 | 0.00 | 66 | 1011.3 |
| 20260905181612 | 94 | 263 | 0.0 | 0.0 | 0.00 | 0.00 | 0.00 | 65 | 1011.5 |
| 20260905180129 | 93 | 0 | 0.0 | 5.2 | 0.00 | 0.00 | 0.00 | 65 | 1012.0 |
| 20260905174607 | 93 | 338 | 0.0 | 0.9 | 0.00 | 0.00 | 0.00 | 67 | 1012.1 |
| 20260905173114 | 93 | 0 | 0.0 | 6.1 | 0.00 | 0.00 | 0.00 | 68 | 1012.4 |
| 20260905171607 | 92 | 0 | 0.0 | 6.1 | 0.00 | 0.00 | 0.00 | 68 | 1012.3 |
| 20260905170107 | 92 | 296 | 0.0 | 4.3 | 0.00 | 0.00 | 0.00 | 71 | 1012.4 |
| 20260905164612 | 91 | 0 | 0.0 | 3.5 | 0.00 | 0.00 | 0.00 | 71 | 1012.7 |
| 20260905163109 | 91 | 0 | 0.0 | 3.5 | 0.00 | 0.00 | 0.00 | 71 | 1012.8 |
| 20260905161607 | 91 | 0 | 0.0 | 1.7 | 0.00 | 0.00 | 0.00 | 73 | 1013.1 |
| 20260905160110 | 90 | 0 | 0.0 | 0.9 | 0.00 | 0.00 | 0.00 | 74 | 1013.3 |
| 20260905154619 | 90 | 0 | 0.0 | 0.9 | 0.00 | 0.00 | 0.00 | 74 | 1013.5 |
| 20260905153107 | 88 | 0 | 0.0 | 0.0 | 0.00 | 0.00 | 0.00 | 76 | 1013.7 |
| 20260905151609 | 87 | 0 | 0.0 | 2.6 | 0.00 | 0.00 | 0.00 | 77 | 1013.6 |
| 20260905150104 | 87 | 0 | 0.0 | 4.3 | 0.00 | 0.00 | 0.00 | 80 | 1013.9 |
| 20260905144606 | 86 | 0 | 0.0 | 3.5 | 0.00 | 0.00 | 0.00 | 81 | 1013.8 |
| 20260905143105 | 86 | 0 | 0.0 | 0.9 | 0.00 | 0.00 | 0.00 | 82 | 1014.0 |
| 20260905141606 | 85 | 0 | 0.0 | 4.3 | 0.00 | 0.00 | 0.00 | 84 | 1014.1 |
| 20260905140109 | 83 | 0 | 0.0 | 4.3 | 0.00 | 0.00 | 0.00 | 85 | 1014.1 |
| 20260905134607 | 83 | 0 | 0.0 | 0.9 | 0.00 | 0.00 | 0.00 | 87 | 1014.1 |
| 20260905133106 | 82 | 0 | 0.0 | 4.3 | 0.00 | 0.00 | 0.00 | 89 | 1014.2 |
| 20260905131609 | 81 | 0 | 0.0 | 0.9 | 0.00 | 0.00 | 0.00 | 90 | 1014.2 |
| 20260905130106 | 80 | 0 | 0.0 | 1.7 | 0.00 | 0.00 | 0.00 | 92 | 1014.3 |